Time;durP1;ratioP1;P1;durP2;ratioP2;P2;SDS_P1;SDS_P2;PMS_P1;PMS_P2;Temp;Humidity;BMP_temperature;BMP_pressure;BME280_temperature;BME280_humidity;BME280_pressure;Samples;Min_cycle;Max_cycle;Signal;HPM_P1;HPM_P2
2022/08/18 00:02:20;;;;;;;15.55;12.82;;;21.60;99.90;;;20.88;100.00;100820.16;4993724;28;20034;-74
2022/08/18 00:04:46;;;;;;;17.20;12.73;;;21.60;99.90;;;20.88;100.00;100821.97;4997735;28;20091;-74
2022/08/18 00:07:18;;;;;;;14.52;12.05;;;21.60;99.90;;;20.80;100.00;100819.13;5010650;28;20037;-74
2022/08/18 00:09:46;;;;;;;16.73;12.68;;;21.50;99.90;;;20.76;100.00;100815.03;5003035;28;20034;-74
2022/08/18 00:12:24;;;;;;;18.35;13.20;;;21.50;99.90;;;20.75;100.00;100805.31;5002195;28;20038;-74
2022/08/18 00:14:51;;;;;;;20.52;12.68;;;21.50;99.90;;;20.77;100.00;100806.84;5008836;28;20092;-74
2022/08/18 00:17:17;;;;;;;15.05;12.73;;;21.50;99.90;;;20.66;100.00;100806.97;5001327;28;20046;-74
2022/08/18 00:19:44;;;;;;;15.95;13.68;;;21.40;99.90;;;20.68;100.00;100811.19;5007427;28;20040;-74
2022/08/18 00:22:14;;;;;;;17.60;13.38;;;21.40;99.90;;;20.67;100.00;100804.16;5006202;28;20045;-74
2022/08/18 00:24:40;;;;;;;16.42;13.93;;;21.40;99.90;;;20.56;100.00;100798.88;4970242;28;20111;-75
2022/08/18 00:27:09;;;;;;;17.42;12.90;;;21.40;99.90;;;20.59;100.00;100789.75;5010388;28;20033;-75
2022/08/18 00:29:35;;;;;;;17.75;14.45;;;21.40;99.90;;;20.62;100.00;100789.47;4990780;28;20069;-75
2022/08/18 00:32:15;;;;;;;17.73;15.30;;;21.40;99.90;;;20.60;100.00;100781.59;5006886;28;20042;-74
2022/08/18 00:34:41;;;;;;;17.00;15.02;;;21.40;99.90;;;20.61;100.00;100785.13;4990495;28;20041;-74
2022/08/18 00:37:07;;;;;;;17.83;14.40;;;21.40;99.90;;;20.57;100.00;100794.38;4992720;28;20120;-74
2022/08/18 00:39:33;;;;;;;;;;;21.40;99.90;;;20.56;100.00;100787.31;5006272;28;20490;-74
2022/08/18 00:42:19;;;;;;;17.38;13.85;;;21.40;99.90;;;20.52;100.00;100797.44;5006347;28;20270;-74
2022/08/18 00:44:45;;;;;;;15.38;13.73;;;21.40;99.90;;;20.57;100.00;100797.91;5005807;28;20033;-74
2022/08/18 00:47:11;;;;;;;14.15;12.65;;;21.40;99.90;;;20.63;100.00;100792.03;4988217;28;20414;-74
2022/08/18 00:49:41;;;;;;;15.70;14.05;;;21.40;99.90;;;20.62;100.00;100782.28;5010118;28;20090;-75
2022/08/18 00:52:11;;;;;;;15.20;13.27;;;21.40;99.90;;;20.68;100.00;100783.59;5005256;28;20037;-73
2022/08/18 00:54:40;;;;;;;15.27;13.13;;;21.40;99.90;;;20.73;100.00;100781.34;5006960;28;20502;-75
2022/08/18 00:57:07;;;;;;;18.92;13.93;;;21.40;99.90;;;20.73;100.00;100769.81;5007634;28;20037;-74
2022/08/18 00:59:57;;;;;;;15.35;12.50;;;21.40;99.90;;;20.76;100.00;100772.22;4992011;28;20490;-75
2022/08/18 01:02:32;;;;;;;17.67;12.52;;;21.50;99.90;;;20.76;100.00;100765.03;5008217;28;20405;-74
2022/08/18 01:05:09;;;;;;;15.63;13.75;;;21.50;99.90;;;20.74;100.00;100767.00;5005383;28;20160;-73
2022/08/18 01:07:44;;;;;;;16.92;13.18;;;21.50;99.90;;;20.80;100.00;100768.28;4993855;28;20053;-74
2022/08/18 01:10:15;;;;;;;14.23;12.63;;;21.50;99.90;;;20.79;100.00;100771.94;5010467;28;20053;-74
2022/08/18 01:12:48;;;;;;;14.38;12.35;;;21.50;99.90;;;20.82;100.00;100763.63;5007036;28;20026;-74
2022/08/18 01:15:16;;;;;;;15.05;12.60;;;21.50;99.90;;;20.86;100.00;100770.41;4997894;28;20030;-74
2022/08/18 01:23:46;;;;;;;16.58;12.07;;;21.60;99.90;;;20.90;100.00;100763.78;5005763;28;20121;-74
2022/08/18 01:26:15;;;;;;;16.00;12.20;;;21.60;99.90;;;20.92;100.00;100769.84;5005279;28;20029;-75
2022/08/18 01:28:44;;;;;;;19.08;12.70;;;21.60;99.90;;;20.99;100.00;100770.16;4996397;28;20414;-74
2022/08/18 01:31:12;;;;;;;13.00;11.48;;;21.70;99.90;;;21.00;100.00;100763.84;4987563;28;20041;-74
2022/08/18 01:33:43;;;;;;;14.63;11.75;;;21.70;99.90;;;21.04;100.00;100770.59;5005983;28;20079;-74
2022/08/18 01:36:18;;;;;;;16.73;12.02;;;21.70;99.90;;;21.04;100.00;100782.16;4989779;28;20103;-74
2022/08/18 01:38:49;;;;;;;15.32;11.70;;;21.80;99.90;;;21.10;100.00;100775.38;5006021;28;20076;-75
2022/08/18 01:41:20;;;;;;;12.77;11.23;;;21.80;99.90;;;21.15;100.00;100802.59;5007002;28;20081;-75
2022/08/18 01:43:48;;;;;;;17.80;13.82;;;21.80;99.90;;;21.07;100.00;100846.09;4987944;28;20037;-74
2022/08/18 01:46:19;;;;;;;16.73;13.57;;;21.80;99.90;;;20.99;100.00;100823.69;5009532;28;20523;-74
2022/08/18 01:48:47;;;;;;;16.00;10.98;;;21.80;99.90;;;21.04;100.00;100843.72;4993758;28;20061;-74
2022/08/18 01:51:14;;;;;;;16.00;11.45;;;21.90;99.90;;;21.18;100.00;100834.44;5018685;28;20521;-74
2022/08/18 01:53:41;;;;;;;13.30;11.82;;;21.90;99.90;;;21.28;100.00;100827.28;5009252;28;20041;-74
2022/08/18 01:56:08;;;;;;;13.55;12.15;;;22.00;99.90;;;21.29;100.00;100831.66;4994974;28;20405;-74
2022/08/18 01:58:35;;;;;;;14.05;12.02;;;22.00;99.90;;;21.31;100.00;100827.00;4996503;28;20591;-74
2022/08/18 02:01:02;;;;;;;18.15;13.73;;;22.00;99.90;;;21.35;100.00;100830.25;4995254;28;20064;-75
2022/08/18 02:03:34;;;;;;;22.92;14.32;;;22.00;99.90;;;21.28;100.00;100824.59;5000436;28;20461;-73
2022/08/18 02:06:03;;;;;;;15.90;14.10;;;22.00;99.90;;;21.14;100.00;100811.59;4994462;28;20034;-73
2022/08/18 02:08:30;;;;;;;21.27;15.50;;;21.90;99.90;;;21.10;100.00;100805.69;5007494;28;20456;-73
2022/08/18 02:10:59;;;;;;;19.65;14.90;;;21.90;99.90;;;21.04;100.00;100795.53;5012006;28;20050;-73
2022/08/18 02:13:26;;;;;;;16.40;10.73;;;21.80;99.90;;;20.78;100.00;100791.66;5011726;28;20109;-74
2022/08/18 02:15:52;;;;;;;13.65;11.85;;;21.70;99.90;;;20.73;100.00;100783.19;4993419;28;20034;-74
2022/08/18 02:18:26;;;;;;;15.75;10.55;;;21.60;99.90;;;20.69;100.00;100763.88;5010228;28;20044;-73
2022/08/18 02:20:57;;;;;;;15.90;9.80;;;21.60;99.90;;;20.64;100.00;100769.63;5010243;28;20048;-73
2022/08/18 02:23:24;;;;;;;8.45;6.13;;;21.50;99.90;;;20.73;100.00;100761.78;5007013;28;20049;-74
2022/08/18 02:25:50;;;;;;;7.75;6.03;;;21.40;99.90;;;20.51;100.00;100757.47;4995168;28;20065;-73
2022/08/18 02:28:16;;;;;;;9.43;5.60;;;21.40;99.90;;;20.39;100.00;100752.22;4991812;28;20498;-74
2022/08/18 02:30:42;;;;;;;13.77;8.60;;;21.40;99.90;;;20.39;100.00;100746.00;5009922;28;20053;-74
2022/08/18 02:33:10;;;;;;;19.90;11.10;;;21.30;99.90;;;20.48;100.00;100739.84;4999215;28;20025;-74
2022/08/18 02:35:37;;;;;;;14.75;9.85;;;21.30;99.90;;;20.49;100.00;100741.53;4995020;28;20104;-74
2022/08/18 02:38:06;;;;;;;14.15;9.75;;;21.40;99.90;;;20.57;100.00;100743.53;4984906;28;20063;-74
2022/08/18 02:40:34;;;;;;;13.13;9.07;;;21.40;99.90;;;20.67;100.00;100731.94;5009715;28;20025;-74
2022/08/18 02:43:09;;;;;;;12.93;9.10;;;21.40;99.90;;;20.73;100.00;100735.03;5006734;28;20369;-74
2022/08/18 02:45:38;;;;;;;14.45;8.10;;;21.50;99.90;;;20.75;100.00;100735.72;5011798;28;20051;-74
2022/08/18 02:48:06;;;;;;;10.27;7.38;;;21.50;99.90;;;20.84;100.00;100724.19;4984752;28;20095;-74
2022/08/18 02:50:32;;;;;;;10.48;5.07;;;21.60;99.90;;;20.86;100.00;100724.91;5006093;28;20041;-74
2022/08/18 02:53:00;;;;;;;7.05;5.40;;;21.60;99.90;;;20.90;100.00;100723.66;5008819;28;20022;-74
2022/08/18 02:55:28;;;;;;;5.15;4.00;;;21.60;99.90;;;20.94;100.00;100718.88;5013810;28;20029;-74
2022/08/18 02:57:53;;;;;;;8.98;3.95;;;21.70;99.90;;;21.01;100.00;100725.34;5013198;28;20018;-75
2022/08/18 03:00:20;;;;;;;5.78;4.57;;;21.70;99.90;;;21.06;100.00;100766.78;5010210;28;20038;-73
2022/08/18 03:02:52;;;;;;;10.25;5.10;;;21.70;99.90;;;20.90;100.00;100748.56;4991224;28;20394;-74
2022/08/18 03:05:18;;;;;;;9.40;5.80;;;21.70;99.90;;;21.00;100.00;100783.41;5024301;28;20029;-74
2022/08/18 03:07:45;;;;;;;9.18;5.70;;;21.70;99.90;;;20.99;100.00;100763.00;4992215;28;20033;-74
2022/08/18 03:10:14;;;;;;;7.65;5.53;;;21.70;99.90;;;20.90;100.00;100748.56;5008556;28;20061;-74
2022/08/18 03:12:43;;;;;;;7.78;6.10;;;21.70;99.90;;;20.94;100.00;100762.53;4994701;28;20033;-74
2022/08/18 03:15:11;;;;;;;8.93;6.10;;;21.70;99.90;;;20.97;100.00;100756.94;4977765;28;20048;-74
2022/08/18 03:17:38;;;;;;;10.18;6.85;;;21.70;99.90;;;20.98;100.00;100752.41;5008466;28;20124;-75
2022/08/18 03:20:05;;;;;;;7.95;7.00;;;21.70;99.90;;;21.01;100.00;100747.59;5008881;28;20029;-76
2022/08/18 03:22:31;;;;;;;10.55;7.57;;;21.70;99.90;;;20.93;100.00;100739.44;4992652;28;20041;-76
2022/08/18 03:24:57;;;;;;;11.75;8.40;;;21.70;99.90;;;20.84;100.00;100721.53;5009694;28;20409;-75
2022/08/18 03:27:24;;;;;;;10.95;8.68;;;21.70;99.90;;;20.88;100.00;100725.63;5001365;28;20037;-76
2022/08/18 03:29:50;;;;;;;11.00;8.52;;;21.60;99.90;;;20.85;100.00;100725.91;5006488;28;20048;-75
2022/08/18 03:32:17;;;;;;;10.32;8.82;;;21.70;99.90;;;20.89;100.00;100714.78;5003663;28;20038;-75
2022/08/18 03:34:43;;;;;;;13.77;8.68;;;21.60;99.90;;;20.80;100.00;100709.41;5008980;28;20398;-76
2022/08/18 03:37:09;;;;;;;9.18;8.15;;;21.60;99.90;;;20.80;100.00;100710.28;5008711;28;20132;-75
2022/08/18 03:39:35;;;;;;;12.75;8.73;;;21.60;99.90;;;20.78;100.00;100712.22;4988076;28;20045;-75
2022/08/18 03:42:01;;;;;;;13.77;9.52;;;21.60;99.90;;;20.77;100.00;100710.53;4975478;28;20057;-75
2022/08/18 03:44:31;;;;;;;10.88;8.30;;;21.60;99.90;;;20.77;100.00;100707.84;5012162;28;20037;-75
2022/08/18 03:46:57;;;;;;;13.70;8.77;;;21.60;99.90;;;20.80;100.00;100702.25;4992156;28;20081;-75
2022/08/18 03:49:25;;;;;;;11.70;8.07;;;21.60;99.90;;;20.86;100.00;100706.19;4999768;28;20056;-76
2022/08/18 03:51:51;;;;;;;8.52;7.50;;;21.60;99.90;;;20.94;100.00;100708.16;4991467;28;20444;-75
2022/08/18 03:54:18;;;;;;;9.38;7.88;;;21.70;99.90;;;21.03;100.00;100710.00;4992022;28;20068;-76
2022/08/18 03:56:46;;;;;;;10.30;8.02;;;21.80;99.90;;;21.09;100.00;100725.50;4998000;28;20703;-75
2022/08/18 03:59:20;;;;;;;16.00;8.93;;;21.80;99.90;;;21.11;100.00;100720.88;4991488;28;20462;-75
2022/08/18 04:01:49;;;;;;;11.70;8.70;;;21.80;99.90;;;21.13;100.00;100718.06;4991663;28;20117;-75
2022/08/18 04:04:20;;;;;;;10.82;9.02;;;21.90;99.90;;;21.16;100.00;100715.94;5009077;28;20506;-75
2022/08/18 04:07:09;;;;;;;11.52;8.25;;;21.90;99.90;;;21.12;100.00;100711.84;5010912;28;20494;-76
2022/08/18 04:09:37;;;;;;;10.32;8.27;;;21.90;99.90;;;21.08;100.00;100705.94;5011920;28;20528;-75
2022/08/18 04:12:11;;;;;;;10.43;7.88;;;21.90;99.90;;;21.05;100.00;100697.31;4991880;28;20071;-76
2022/08/18 04:14:39;;;;;;;10.75;6.80;;;21.80;99.90;;;21.06;100.00;100702.56;5009847;28;20143;-76
2022/08/18 04:17:05;;;;;;;9.02;6.53;;;21.80;99.90;;;21.08;100.00;100703.25;5008180;28;20034;-75
2022/08/18 04:19:33;;;;;;;8.52;6.15;;;21.90;99.90;;;21.16;99.60;100715.09;5009708;28;20033;-75
2022/08/18 04:22:02;;;;;;;6.05;5.07;;;21.90;99.90;;;21.22;97.24;100711.84;5009951;28;20065;-77
2022/08/18 04:24:30;;;;;;;6.35;4.95;;;22.00;99.90;;;21.37;92.54;100737.22;4978934;28;20045;-75
2022/08/18 04:26:59;;;;;;;7.68;5.93;;;22.00;99.90;;;21.43;95.88;100762.63;5005968;28;20042;-76
2022/08/18 04:29:26;;;;;;;11.82;8.20;;;22.10;99.90;;;21.27;100.00;100763.13;5012163;28;20405;-75
2022/08/18 04:31:52;;;;;;;8.90;8.00;;;22.00;99.90;;;21.10;100.00;100756.63;5008615;28;20056;-75
2022/08/18 04:34:21;;;;;;;10.73;8.63;;;21.80;99.90;;;20.70;100.00;100746.84;4999933;28;20453;-76
2022/08/18 04:36:48;;;;;;;9.77;7.13;;;21.70;99.90;;;20.75;100.00;100739.25;4996579;28;20043;-76
2022/08/18 04:39:14;;;;;;;14.50;8.52;;;21.60;99.90;;;20.71;100.00;100731.63;5008530;28;20033;-76
2022/08/18 04:41:42;;;;;;;10.18;7.20;;;21.60;99.90;;;20.76;100.00;100735.59;5009794;28;20112;-76
2022/08/18 04:44:10;;;;;;;9.55;7.20;;;21.50;99.90;;;20.73;100.00;100737.69;4999374;28;20037;-76
2022/08/18 04:46:45;;;;;;;11.93;7.53;;;21.60;99.90;;;20.77;100.00;100736.44;4989303;28;20128;-76
2022/08/18 04:49:11;;;;;;;9.95;7.20;;;21.50;99.90;;;20.73;100.00;100738.53;4992474;28;20029;-76
2022/08/18 04:53:43;;;;;;;10.05;7.05;;;21.50;99.90;;;20.69;100.00;100742.47;4998190;28;20570;-76
2022/08/18 04:54:33;;;;;;;10.32;7.18;;;21.50;99.90;;;20.67;100.00;100734.59;5007016;28;20045;-76
2022/08/18 04:57:06;;;;;;;11.05;7.60;;;21.50;99.90;;;20.73;100.00;100741.22;5008420;28;20048;-76
2022/08/18 04:59:39;;;;;;;9.10;7.78;;;21.50;99.90;;;20.82;100.00;100736.88;5006886;28;20446;-75
2022/08/18 05:02:07;;;;;;;13.57;8.43;;;21.50;99.90;;;20.86;100.00;100740.97;5006276;28;20040;-76
2022/08/18 05:04:37;;;;;;;14.68;8.95;;;21.60;99.90;;;20.84;100.00;100735.78;5006938;28;20060;-75
2022/08/18 05:07:04;;;;;;;13.63;8.48;;;21.60;99.90;;;20.86;100.00;100735.63;4999310;28;20026;-76
2022/08/18 05:09:31;;;;;;;10.80;9.02;;;21.60;99.90;;;21.01;100.00;100731.53;4976710;28;20071;-76
2022/08/18 05:11:57;;;;;;;14.00;8.93;;;21.70;99.90;;;21.10;100.00;100730.75;4988986;28;20025;-76
2022/08/18 05:14:23;;;;;;;11.32;8.63;;;21.80;99.90;;;21.20;100.00;100727.22;5008034;28;20486;-76
2022/08/18 05:16:50;;;;;;;12.50;8.38;;;21.90;99.90;;;21.32;100.00;100744.84;5007621;28;20034;-76
2022/08/18 05:19:21;;;;;;;11.30;8.77;;;21.90;99.90;;;21.42;100.00;100736.81;5009649;28;20030;-77
2022/08/18 05:21:49;;;;;;;12.15;9.60;;;22.00;99.90;;;21.53;100.00;100742.03;4982858;28;20048;-77
2022/08/18 05:24:16;;;;;;;12.48;10.40;;;22.10;99.90;;;21.80;100.00;100743.13;5008227;28;20044;-76
2022/08/18 05:26:42;;;;;;;19.80;11.93;;;22.30;99.90;;;21.82;100.00;100733.97;4995357;28;20037;-76
2022/08/18 05:29:07;;;;;;;16.73;11.60;;;22.40;99.90;;;22.00;100.00;100723.31;4981587;28;20033;-76
2022/08/18 05:31:33;;;;;;;16.08;10.48;;;22.50;99.90;;;22.22;100.00;100715.91;5007828;28;20034;-76
2022/08/18 05:34:02;;;;;;;12.63;10.20;;;22.70;99.90;;;22.36;100.00;100717.31;5007716;28;20049;-76
2022/08/18 05:36:47;;;;;;;12.02;8.45;;;22.80;99.90;;;22.51;100.00;100724.72;4998074;28;20036;-76
2022/08/18 05:40:03;;;;;;;11.88;8.57;;;22.90;99.90;;;23.03;100.00;100726.81;4999669;28;20041;-76
2022/08/18 05:42:38;;;;;;;9.07;8.13;;;23.20;99.90;;;23.09;98.06;100734.28;4999230;28;20091;-76
2022/08/18 05:45:14;;;;;;;10.30;8.80;;;23.20;99.90;;;22.89;99.64;100732.66;5008851;28;20467;-77
2022/08/18 05:47:40;;;;;;;13.25;7.90;;;23.30;99.90;;;22.94;99.26;100733.91;4974475;28;20506;-76
2022/08/18 05:50:11;;;;;;;14.45;9.13;;;23.30;99.90;;;22.84;99.12;100722.38;4997575;28;20420;-76
2022/08/18 05:53:00;;;;;;;9.93;8.23;;;23.30;99.90;;;22.68;100.00;100728.44;4965692;28;20026;-76
2022/08/18 05:58:30;;;;;;;13.88;8.80;;;23.20;99.90;;;23.12;99.49;100736.63;5005419;28;20041;-76
2022/08/18 06:01:01;;;;;;;;;;;23.30;99.90;;;23.84;96.03;100736.59;4983481;28;20053;-76
2022/08/18 06:03:50;;;;;;;8.40;7.60;;;23.80;99.90;;;24.12;91.84;100744.50;5004845;28;20432;-76
2022/08/18 06:06:29;;;;;;;9.25;7.50;;;24.10;99.90;;;24.14;90.20;100747.88;4989584;28;20129;-76
2022/08/18 06:09:15;;;;;;;9.48;7.55;;;24.20;99.90;;;24.59;87.92;100748.63;4989906;28;20029;-76
2022/08/18 06:11:42;;;;;;;14.65;7.45;;;24.60;99.90;;;24.87;86.05;100754.63;5005739;28;20516;-76
2022/08/18 06:14:08;;;;;;;11.43;7.55;;;24.90;99.90;;;25.38;83.17;100767.03;5006172;28;20040;-76
2022/08/18 06:17:17;;;;;;;11.07;7.38;;;25.10;99.90;;;25.10;83.47;100771.84;4998948;28;20498;-76
2022/08/18 06:20:27;;;;;;;7.72;6.93;;;25.40;99.90;;;26.07;79.20;100782.03;4988416;28;20033;-76
2022/08/18 06:23:20;;;;;;;11.95;7.43;;;25.70;99.90;;;26.16;77.53;100784.53;5007202;28;20460;-76
2022/08/18 06:26:39;;;;;;;9.35;7.30;;;26.10;99.90;;;27.47;73.47;100777.69;5003121;28;20056;-77
2022/08/18 06:29:20;;;;;;;9.70;6.65;;;26.60;99.90;;;27.23;73.71;100770.63;4974820;28;20040;-76
2022/08/18 06:32:20;;;;;;;8.43;7.30;;;27.00;99.90;;;27.18;72.58;100773.00;5006113;28;20502;-76
2022/08/18 06:35:19;;;;;;;9.80;7.70;;;26.90;99.90;;;26.99;74.89;100777.81;4991792;28;20034;-76
2022/08/18 06:38:40;;;;;;;8.32;7.05;;;27.10;99.90;;;27.70;71.97;100777.69;4992811;28;20076;-76
2022/08/18 06:41:41;;;;;;;9.27;7.90;;;27.50;99.90;;;28.19;70.09;100803.47;5006652;28;20040;-76
2022/08/18 06:44:10;;;;;;;11.25;7.32;;;28.10;99.90;;;29.50;65.78;100801.81;4995875;28;20033;-76
2022/08/18 06:46:53;;;;;;;10.70;7.55;;;28.90;99.90;;;31.12;61.51;100799.97;4998702;28;20037;-76
2022/08/18 06:49:53;;;;;;;8.70;7.80;;;30.20;99.90;;;32.78;56.77;100799.94;4999520;28;20053;-76
2022/08/18 06:52:37;;;;;;;8.60;7.70;;;31.70;99.90;;;34.45;52.99;100809.63;4997601;28;20429;-76
2022/08/18 06:55:14;;;;;;;9.93;7.70;;;32.90;99.90;;;35.45;48.99;100819.34;4999117;28;20045;-76
2022/08/18 06:58:26;;;;;;;13.95;7.53;;;33.80;99.90;;;36.38;48.19;100834.22;5010515;28;20747;-77
2022/08/18 07:00:52;;;;;;;10.57;6.72;;;35.10;99.50;;;37.34;46.76;100833.72;4982063;28;20046;-76
2022/08/18 07:03:53;;;;;;;9.75;7.43;;;35.70;96.10;;;36.89;44.96;100837.22;5001925;28;20038;-76
2022/08/18 07:06:20;;;;;;;13.15;7.78;;;36.30;95.40;;;37.05;45.77;100841.94;4990755;28;20029;-77
2022/08/18 07:08:48;;;;;;;10.30;7.07;;;36.20;94.20;;;36.91;46.28;100846.06;4999176;28;20044;-77
2022/08/18 07:11:20;;;;;;;11.35;8.05;;;36.50;94.30;;;37.20;44.01;100848.84;4986586;28;20061;-77
2022/08/18 07:13:50;;;;;;;10.57;7.82;;;36.70;94.00;;;37.38;44.68;100856.03;4993314;28;20163;-74
2022/08/18 07:16:30;;;;;;;12.55;8.00;;;36.80;92.40;;;36.93;44.35;100846.66;4986494;28;20040;-75
2022/08/18 07:19:28;;;;;;;10.73;8.18;;;36.50;93.70;;;36.25;45.14;100842.72;4992567;28;20482;-74
2022/08/18 07:22:20;;;;;;;13.10;8.45;;;35.80;93.40;;;35.41;47.12;100851.00;5002713;28;20033;-74
2022/08/18 07:24:57;;;;;;;14.10;8.45;;;35.40;93.50;;;34.83;48.26;100844.97;4989388;28;20081;-74
2022/08/18 07:27:43;;;;;;;11.82;8.00;;;35.00;94.10;;;33.89;49.52;100844.22;5006064;28;20029;-75
2022/08/18 07:30:24;;;;;;;17.17;8.98;;;34.40;95.00;;;33.38;51.40;100843.28;5007241;28;20109;-74
2022/08/18 07:33:21;;;;;;;11.32;8.35;;;33.80;95.90;;;32.64;52.28;100831.03;5005054;28;20033;-73
2022/08/18 07:36:10;;;;;;;11.30;8.30;;;32.80;97.20;;;31.07;55.84;100831.34;4996900;28;20080;-74
2022/08/18 07:38:55;;;;;;;12.43;9.35;;;31.70;97.80;;;30.20;59.67;100831.88;4989915;28;20065;-74
2022/08/18 07:41:32;;;;;;;15.93;9.75;;;30.80;99.50;;;29.56;61.59;100821.91;5004715;28;20018;-74
2022/08/18 07:44:08;;;;;;;;;;;30.70;99.90;;;29.79;60.69;100819.03;5010725;28;20083;-74
2022/08/18 07:46:52;;;;;;;10.98;9.60;;;30.30;99.90;;;29.79;62.36;100824.44;4992355;28;20092;-74
2022/08/18 07:49:22;;;;;;;19.27;10.80;;;30.00;99.90;;;29.40;62.70;100812.16;4984578;28;20053;-74
2022/08/18 07:52:16;;;;;;;16.60;10.70;;;29.60;99.90;;;28.73;64.96;100816.78;4999093;28;20563;-73
2022/08/18 07:55:09;;;;;;;14.93;10.27;;;29.30;99.90;;;28.64;66.05;100817.91;4990618;28;20662;-74
2022/08/18 07:57:51;;;;;;;18.77;10.82;;;29.30;99.90;;;29.18;64.80;100804.00;5009970;28;20038;-74
2022/08/18 08:00:38;;;;;;;12.95;10.70;;;29.30;99.90;;;28.90;66.15;100803.00;4999699;28;21087;-73
2022/08/18 08:03:22;;;;;;;17.77;10.77;;;29.60;99.90;;;29.60;64.60;100804.19;5006498;28;20493;-73
2022/08/18 08:06:13;;;;;;;14.00;11.40;;;29.80;99.90;;;29.52;63.75;100798.91;4990312;28;20094;-74
2022/08/18 08:08:42;;;;;;;20.92;12.20;;;29.60;99.90;;;28.89;65.61;100795.91;4995273;28;20045;-74
2022/08/18 08:11:43;;;;;;;15.52;12.15;;;29.50;99.90;;;28.90;65.32;100797.56;5009248;28;20033;-74
2022/08/18 08:14:36;;;;;;;23.70;12.55;;;29.10;99.90;;;27.78;69.41;100795.72;4979464;28;20053;-73
2022/08/18 08:17:24;;;;;;;19.90;13.07;;;28.70;99.90;;;27.83;70.63;100794.13;5009205;28;20041;-73
2022/08/18 08:20:31;;;;;;;16.48;13.77;;;28.60;99.90;;;28.33;68.82;100794.50;4989864;28;20907;-73
2022/08/18 08:23:16;;;;;;;20.27;14.13;;;28.60;99.90;;;28.45;68.88;100804.91;4989833;28;20032;-73
2022/08/18 08:26:30;;;;;;;21.50;14.82;;;28.90;99.90;;;29.15;67.42;100795.41;5003952;28;20025;-73
2022/08/18 08:29:38;;;;;;;21.45;15.15;;;29.40;99.90;;;29.82;64.32;100805.03;5008019;28;20038;-73
2022/08/18 08:32:18;;;;;;;20.23;13.88;;;30.20;99.90;;;30.89;61.88;100789.44;4985506;28;20393;-74
2022/08/18 08:34:51;;;;;;;17.83;14.52;;;31.00;99.90;;;31.77;58.95;100798.44;5010735;28;20418;-74
2022/08/18 08:38:02;;;;;;;23.00;14.23;;;31.60;99.90;;;32.08;56.69;100805.13;5040792;22;20099;-79
2022/08/18 08:40:40;;;;;;;20.90;13.95;;;32.10;99.90;;;32.43;57.35;100810.31;5007612;28;20063;-79
2022/08/18 08:43:14;;;;;;;20.73;13.82;;;32.40;99.90;;;32.72;56.21;100810.88;4987477;28;20029;-79
2022/08/18 08:46:10;;;;;;;22.48;13.45;;;32.70;99.90;;;32.58;55.93;100826.44;4954960;28;20057;-80
2022/08/18 08:48:44;;;;;;;17.85;13.43;;;32.90;99.90;;;32.82;56.10;100820.25;4975086;28;20037;-79
2022/08/18 08:51:32;;;;;;;18.42;13.90;;;32.70;99.50;;;32.60;55.57;100821.59;5024353;28;20556;-78
2022/08/18 08:54:22;;;;;;;19.83;14.00;;;32.80;99.20;;;32.69;54.79;100817.59;4992896;28;20116;-79
2022/08/18 08:56:51;;;;;;;20.67;14.50;;;32.60;99.30;;;32.27;56.80;100820.63;4994390;28;21024;-78
2022/08/18 08:59:24;;;;;;;17.23;12.77;;;32.50;99.10;;;32.16;56.42;100823.13;5010620;28;20034;-79
2022/08/18 09:02:37;;;;;;;22.60;13.35;;;32.10;98.20;;;30.63;57.76;100810.84;5000314;28;20077;-79
2022/08/18 09:05:10;;;;;;;21.33;13.25;;;31.50;99.90;;;30.80;62.08;100814.06;4983042;28;20033;-78
2022/08/18 09:08:44;;;;;;;17.70;13.85;;;31.30;99.90;;;30.67;59.67;100808.56;4997625;28;20033;-79
2022/08/18 09:12:12;;;;;;;20.40;13.55;;;31.30;99.90;;;30.69;60.63;100798.31;4975382;28;20037;-80
2022/08/18 09:15:21;;;;;;;16.50;13.32;;;30.90;99.90;;;30.36;60.87;100798.16;4956995;28;20110;-79
2022/08/18 09:18:17;;;;;;;18.48;13.23;;;30.70;99.90;;;30.17;63.08;100792.38;5029174;22;20096;-78
2022/08/18 09:21:07;;;;;;;16.08;12.88;;;30.90;99.90;;;30.52;62.08;100786.09;4999409;28;20043;-79
2022/08/18 09:23:47;;;;;;;16.75;13.00;;;30.90;99.90;;;30.02;59.99;100769.91;4979584;28;20033;-78
2022/08/18 09:26:39;;;;;;;15.95;12.15;;;30.70;99.90;;;30.20;60.92;100783.00;5001153;28;20091;-78
2022/08/18 09:29:36;;;;;;;18.55;12.10;;;30.70;99.90;;;30.02;60.94;100778.91;5010898;28;20117;-78
2022/08/18 09:32:24;;;;;;;18.70;12.98;;;30.20;99.90;;;29.64;61.75;100771.06;5021487;28;20029;-78
2022/08/18 09:35:23;;;;;;;18.02;12.77;;;30.30;99.90;;;30.00;61.02;100772.84;5011705;28;20037;-78
2022/08/18 09:44:12;;;;;;;17.58;13.45;;;30.50;99.90;;;30.14;61.77;100772.91;4988603;28;20161;-78
2022/08/18 09:46:47;;;;;;;22.23;13.07;;;30.50;99.90;;;30.25;61.39;100756.06;4981772;28;20066;-78
2022/08/18 09:49:24;;;;;;;19.13;12.98;;;30.70;99.90;;;30.53;61.54;100763.34;4965674;28;20589;-78
2022/08/18 09:51:55;;;;;;;21.48;12.48;;;30.90;99.90;;;30.62;59.33;100752.09;4982227;28;20530;-78
2022/08/18 09:54:48;;;;;;;18.67;12.43;;;30.80;99.90;;;30.37;59.97;100759.09;4973564;28;20500;-78
2022/08/18 09:57:29;;;;;;;18.77;11.88;;;31.00;99.90;;;30.74;58.11;100749.66;4993328;23;20536;-78
2022/08/18 10:00:05;;;;;;;17.52;12.02;;;31.00;99.80;;;30.63;58.80;100744.81;5030812;28;21174;-78
2022/08/18 10:02:40;;;;;;;23.25;12.10;;;30.90;99.90;;;30.63;57.66;100747.50;5004326;28;20529;-78
2022/08/18 10:05:21;;;;;;;17.88;12.00;;;31.00;98.80;;;30.60;57.38;100753.34;5028695;28;20033;-78
2022/08/18 10:08:16;;;;;;;15.70;11.82;;;30.70;99.60;;;29.93;58.64;100752.94;5010164;28;20107;-79
2022/08/18 10:10:49;;;;;;;15.95;11.60;;;30.70;99.90;;;30.32;59.36;100754.25;5016904;28;20096;-78
2022/08/18 10:13:31;;;;;;;16.33;11.88;;;30.80;99.90;;;30.53;58.84;100745.16;4990009;28;20377;-78
2022/08/18 10:16:29;;;;;;;15.75;12.00;;;30.90;99.90;;;30.49;58.74;100741.16;5006163;28;20045;-79
2022/08/18 10:19:42;;;;;;;24.38;12.57;;;30.80;99.90;;;30.23;60.76;100753.53;5004576;28;20038;-79
2022/08/18 10:22:16;;;;;;;22.70;12.85;;;30.90;99.90;;;30.44;61.33;100749.09;4980281;28;20121;-78
2022/08/18 10:25:03;;;;;;;15.48;12.35;;;30.90;99.90;;;30.65;60.42;100740.00;5013239;28;20064;-78
2022/08/18 10:27:50;;;;;;;;;;;31.20;99.90;;;30.83;59.01;100745.69;4982099;28;20104;-78
2022/08/18 10:30:32;;;;;;;19.52;13.07;;;31.30;99.90;;;31.13;58.96;100750.00;5017541;28;20415;-78
2022/08/18 10:33:01;;;;;;;18.98;12.45;;;31.40;99.20;;;30.97;58.29;100743.03;5016083;28;20059;-78
2022/08/18 10:35:36;;;;;;;23.92;13.27;;;31.50;99.90;;;31.19;58.75;100755.44;4985961;28;20037;-80
2022/08/18 10:38:16;;;;;;;22.00;13.90;;;31.60;99.90;;;31.41;58.56;100753.38;5049619;23;20254;-78
2022/08/18 10:40:54;;;;;;;16.85;14.07;;;31.60;99.90;;;31.17;59.76;100748.53;5050500;28;20427;-78
2022/08/18 10:43:52;;;;;;;24.42;14.10;;;31.60;99.90;;;31.15;59.43;100739.75;5005160;28;20112;-78
2022/08/18 10:46:33;;;;;;;20.40;14.20;;;31.40;99.90;;;30.67;61.98;100733.31;5030384;28;20746;-78
2022/08/18 10:49:11;;;;;;;20.60;14.75;;;31.30;99.90;;;30.84;61.63;100739.22;4996387;28;20071;-77
2022/08/18 10:52:22;;;;;;;18.38;13.93;;;31.30;99.90;;;30.86;62.08;100734.47;5011228;28;20025;-78
2022/08/18 10:55:09;;;;;;;18.52;13.40;;;31.30;99.90;;;30.99;59.82;100727.34;4974822;28;20091;-78
2022/08/18 10:58:04;;;;;;;18.05;13.15;;;31.40;99.90;;;31.29;59.91;100730.53;5012288;22;20045;-78